Time;durP1;ratioP1;P1;durP2;ratioP2;P2;SDS_P1;SDS_P2;PMS_P1;PMS_P2;Temp;Humidity;BMP_temperature;BMP_pressure;BME280_temperature;BME280_humidity;BME280_pressure;Samples;Min_cycle;Max_cycle;Signal;HPM_P1;HPM_P2
2023/09/19 00:00:43;;;;;;;0.10;0.10;;;17.40;99.90;;;;;;5027898;28;20363;-78
2023/09/19 00:03:10;;;;;;;0.73;0.20;;;17.30;99.90;;;;;;5027444;28;20268;-79
2023/09/19 00:05:44;;;;;;;0.20;0.20;;;17.30;99.90;;;;;;5028895;28;20064;-79
2023/09/19 00:08:10;;;;;;;1.85;0.30;;;17.30;99.90;;;;;;5027977;28;20064;-78
2023/09/19 00:10:35;;;;;;;0.00;0.00;;;17.30;99.90;;;;;;5028046;28;20056;-78
2023/09/19 00:13:06;;;;;;;1.73;0.22;;;17.30;99.90;;;;;;5028945;28;20261;-78
2023/09/19 00:15:42;;;;;;;0.22;0.22;;;17.20;99.90;;;;;;5028754;28;20022;-79
2023/09/19 00:18:08;;;;;;;0.13;0.10;;;17.20;99.90;;;;;;5028209;28;20048;-78
2023/09/19 00:20:38;;;;;;;0.45;0.20;;;17.10;99.90;;;;;;5027655;28;20033;-78
2023/09/19 00:23:09;;;;;;;0.15;0.15;;;17.10;99.90;;;;;;5028667;28;20036;-78
2023/09/19 00:25:37;;;;;;;0.10;0.10;;;17.10;99.90;;;;;;5028105;28;20291;-78
2023/09/19 00:28:07;;;;;;;0.20;0.20;;;17.00;99.90;;;;;;5029385;28;20033;-78
2023/09/19 00:30:33;;;;;;;0.40;0.10;;;17.00;99.90;;;;;;5028490;28;20030;-78
2023/09/19 00:32:59;;;;;;;1.15;0.52;;;17.00;99.90;;;;;;5030256;28;20062;-78
2023/09/19 00:35:25;;;;;;;0.63;0.20;;;17.00;99.90;;;;;;5028202;28;20030;-78
2023/09/19 00:37:51;;;;;;;0.10;0.10;;;17.00;99.90;;;;;;5029030;28;20026;-78
2023/09/19 00:40:17;;;;;;;0.45;0.45;;;17.00;99.90;;;;;;5028891;28;20036;-78
2023/09/19 00:42:44;;;;;;;2.80;0.40;;;17.00;99.90;;;;;;5028801;28;20022;-78
2023/09/19 00:45:12;;;;;;;0.98;0.22;;;17.00;99.90;;;;;;5028434;28;20043;-78
2023/09/19 00:47:44;;;;;;;0.40;0.40;;;17.00;99.90;;;;;;5029800;28;20112;-79
2023/09/19 00:50:42;;;;;;;0.10;0.10;;;16.90;99.90;;;;;;5049309;28;20038;-82
2023/09/19 00:53:13;;;;;;;0.90;0.30;;;16.90;99.90;;;;;;5057054;28;20006;-82
2023/09/19 00:55:42;;;;;;;0.25;0.25;;;16.90;99.90;;;;;;5052349;28;20048;-81
2023/09/19 00:58:10;;;;;;;4.25;1.00;;;16.90;99.90;;;;;;5055984;28;20041;-81
2023/09/19 01:00:39;;;;;;;1.05;0.60;;;16.90;99.90;;;;;;5051114;28;20049;-81
2023/09/19 01:03:15;;;;;;;1.45;0.32;;;17.00;99.90;;;;;;5055540;28;20042;-82
2023/09/19 01:05:47;;;;;;;2.08;0.35;;;17.00;99.90;;;;;;5056556;28;20109;-81
2023/09/19 01:08:17;;;;;;;0.22;0.20;;;17.90;99.90;;;;;;5043303;28;20009;-81
2023/09/19 01:11:36;;;;;;;0.88;0.40;;;17.20;99.90;;;;;;5056193;28;20037;-81
2023/09/19 01:14:29;;;;;;;1.57;0.20;;;17.30;99.90;;;;;;5054634;28;20037;-80
2023/09/19 01:17:09;;;;;;;0.50;0.28;;;17.40;99.90;;;;;;5055483;28;20113;-80
2023/09/19 01:20:06;;;;;;;3.13;0.40;;;17.40;99.90;;;;;;5051544;28;20390;-80
2023/09/19 01:23:09;;;;;;;0.30;0.30;;;17.50;99.90;;;;;;5052701;28;20044;-81
2023/09/19 01:25:47;;;;;;;0.63;0.38;;;17.50;99.90;;;;;;5035476;28;20065;-81
2023/09/19 01:28:54;;;;;;;5.35;1.00;;;17.50;99.90;;;;;;5041931;28;20513;-81
2023/09/19 01:31:23;;;;;;;0.38;0.35;;;17.50;99.90;;;;;;4971540;28;20066;-81
2023/09/19 01:34:04;;;;;;;0.22;0.22;;;17.40;99.90;;;;;;5036436;28;20060;-82
2023/09/19 01:36:38;;;;;;;1.27;0.40;;;17.40;99.90;;;;;;5031167;28;20655;-82
2023/09/19 01:39:15;;;;;;;0.10;0.10;;;17.30;99.90;;;;;;5033625;28;20029;-82
2023/09/19 01:42:06;;;;;;;1.52;0.30;;;17.40;99.90;;;;;;5031326;28;20482;-81
2023/09/19 01:44:59;;;;;;;0.73;0.73;;;17.30;99.90;;;;;;5031224;28;20037;-82
2023/09/19 01:48:01;;;;;;;1.35;0.60;;;17.30;99.90;;;;;;5027253;28;20037;-82
2023/09/19 01:50:31;;;;;;;0.57;0.45;;;17.30;99.90;;;;;;5028311;28;20061;-81
2023/09/19 01:53:24;;;;;;;1.75;0.80;;;17.30;99.90;;;;;;5054060;28;20028;-81
2023/09/19 01:55:55;;;;;;;0.65;0.47;;;17.20;99.90;;;;;;5054634;28;20029;-81
2023/09/19 01:58:36;;;;;;;1.23;0.63;;;17.20;99.90;;;;;;5054687;28;20009;-81
2023/09/19 02:01:06;;;;;;;0.55;0.35;;;17.30;99.90;;;;;;5054300;28;20052;-81
2023/09/19 02:03:35;;;;;;;0.65;0.50;;;17.30;99.90;;;;;;5052129;28;20037;-81
2023/09/19 02:06:03;;;;;;;3.85;0.52;;;17.30;99.90;;;;;;5053246;28;20025;-81
2023/09/19 02:08:34;;;;;;;0.35;0.35;;;17.30;99.90;;;;;;5057829;28;20016;-81
2023/09/19 02:11:00;;;;;;;3.67;0.95;;;17.30;99.90;;;;;;5050091;28;20048;-80
2023/09/19 02:13:27;;;;;;;1.02;0.35;;;17.30;99.90;;;;;;5047716;28;20017;-80
2023/09/19 02:15:55;;;;;;;0.68;0.20;;;17.30;99.90;;;;;;5033385;28;20116;-81
2023/09/19 02:18:21;;;;;;;0.50;0.50;;;17.40;99.90;;;;;;5046613;28;20036;-80
2023/09/19 02:20:47;;;;;;;0.40;0.40;;;17.40;99.90;;;;;;5050402;28;20112;-81
2023/09/19 02:23:13;;;;;;;0.73;0.40;;;17.40;99.90;;;;;;5047188;28;20454;-80
2023/09/19 02:25:40;;;;;;;1.33;0.70;;;17.40;99.90;;;;;;5047944;28;20069;-81
2023/09/19 02:28:09;;;;;;;20.35;0.95;;;17.30;99.90;;;;;;5047239;28;20033;-81
2023/09/19 02:30:36;;;;;;;0.93;0.47;;;17.40;99.90;;;;;;5049032;28;20041;-81
2023/09/19 02:33:04;;;;;;;0.40;0.30;;;17.40;99.90;;;;;;5051825;28;20072;-81
2023/09/19 02:35:35;;;;;;;1.38;0.52;;;17.40;99.90;;;;;;5050388;28;20022;-81
2023/09/19 02:38:00;;;;;;;1.98;0.35;;;17.50;99.90;;;;;;5047178;28;20021;-81
2023/09/19 02:40:26;;;;;;;0.85;0.32;;;17.40;99.90;;;;;;5045491;28;20049;-81
2023/09/19 02:42:56;;;;;;;0.10;0.10;;;17.40;99.90;;;;;;5049492;28;20033;-81
2023/09/19 02:45:23;;;;;;;1.30;0.82;;;17.40;99.90;;;;;;5051259;28;20045;-80
2023/09/19 02:47:49;;;;;;;0.40;0.40;;;17.40;99.90;;;;;;5051639;28;20044;-81
2023/09/19 02:50:18;;;;;;;0.52;0.52;;;17.40;99.90;;;;;;5050177;28;20022;-81
2023/09/19 02:52:45;;;;;;;0.30;0.20;;;17.40;99.90;;;;;;5047246;28;20108;-81
2023/09/19 02:55:17;;;;;;;0.55;0.43;;;17.40;99.90;;;;;;5022284;28;20037;-80
2023/09/19 02:57:56;;;;;;;0.35;0.35;;;17.30;99.90;;;;;;5048152;28;20034;-80
2023/09/19 03:00:23;;;;;;;0.75;0.57;;;17.30;99.90;;;;;;5044945;28;20024;-80
2023/09/19 03:02:55;;;;;;;1.85;0.70;;;17.30;99.90;;;;;;5046374;28;20026;-80
2023/09/19 03:05:23;;;;;;;1.95;0.40;;;17.30;99.90;;;;;;5051186;28;20037;-81
2023/09/19 03:07:52;;;;;;;0.30;0.30;;;17.30;99.90;;;;;;5049922;28;20029;-81
2023/09/19 03:10:19;;;;;;;;;;;17.30;99.90;;;;;;5046763;28;20035;-81
2023/09/19 03:12:46;;;;;;;1.55;0.47;;;17.30;99.90;;;;;;5047783;28;19948;-81
2023/09/19 03:15:15;;;;;;;1.45;0.47;;;17.30;99.90;;;;;;5048075;28;20026;-80
2023/09/19 03:17:47;;;;;;;2.00;0.85;;;17.30;99.90;;;;;;5046731;28;20041;-80
2023/09/19 03:20:17;;;;;;;0.50;0.47;;;17.20;99.90;;;;;;5048035;28;20121;-80
2023/09/19 03:22:46;;;;;;;0.60;0.60;;;17.20;99.90;;;;;;5047333;28;20033;-80
2023/09/19 03:25:14;;;;;;;1.65;0.40;;;17.20;99.90;;;;;;5045107;28;20264;-81
2023/09/19 03:27:42;;;;;;;1.02;0.82;;;17.20;99.90;;;;;;5049434;28;20092;-80
2023/09/19 03:30:08;;;;;;;3.10;0.30;;;17.20;99.90;;;;;;5049444;28;20022;-80
2023/09/19 03:32:35;;;;;;;2.45;0.55;;;17.20;99.90;;;;;;5046808;28;20032;-80
2023/09/19 03:35:05;;;;;;;1.00;0.60;;;17.20;99.90;;;;;;5048103;28;20040;-80
2023/09/19 03:37:33;;;;;;;1.50;0.55;;;17.20;99.90;;;;;;5033985;28;20101;-80
2023/09/19 03:39:58;;;;;;;1.13;0.65;;;17.20;99.90;;;;;;5049467;28;20070;-81
2023/09/19 03:42:26;;;;;;;3.10;0.50;;;17.20;99.90;;;;;;5048882;28;20021;-80
2023/09/19 03:44:52;;;;;;;0.77;0.40;;;17.10;99.90;;;;;;5050959;28;20033;-81
2023/09/19 03:47:21;;;;;;;0.45;0.45;;;17.10;99.90;;;;;;5052382;28;20021;-81
2023/09/19 03:49:47;;;;;;;0.32;0.32;;;17.10;99.90;;;;;;5055467;28;20038;-80
2023/09/19 03:52:13;;;;;;;0.30;0.30;;;17.10;99.90;;;;;;5047454;28;20033;-80
2023/09/19 03:54:41;;;;;;;0.38;0.38;;;17.10;99.90;;;;;;5034765;28;20021;-81
2023/09/19 03:57:12;;;;;;;1.38;0.50;;;17.20;99.90;;;;;;5033778;28;20033;-80
2023/09/19 03:59:38;;;;;;;0.70;0.47;;;17.10;99.90;;;;;;5046219;28;20021;-80
2023/09/19 04:02:04;;;;;;;1.20;0.30;;;17.10;99.90;;;;;;5045935;28;20052;-81
2023/09/19 04:04:30;;;;;;;0.57;0.50;;;17.10;99.90;;;;;;5032043;28;20036;-80
2023/09/19 04:06:56;;;;;;;0.75;0.40;;;17.10;99.90;;;;;;5049403;28;20041;-79
2023/09/19 04:09:22;;;;;;;0.30;0.25;;;17.10;99.90;;;;;;5039894;28;20037;-79
2023/09/19 04:11:49;;;;;;;1.20;0.35;;;17.10;99.90;;;;;;5040021;28;20326;-79
2023/09/19 04:14:15;;;;;;;2.42;0.35;;;17.10;99.90;;;;;;5028584;28;20018;-79
2023/09/19 04:16:41;;;;;;;0.90;0.30;;;17.10;99.90;;;;;;5029403;28;20064;-79
2023/09/19 04:19:06;;;;;;;3.03;0.82;;;17.10;99.90;;;;;;5037771;28;20071;-78
2023/09/19 04:21:32;;;;;;;5.22;0.52;;;17.00;99.90;;;;;;5033481;28;20029;-78
2023/09/19 04:23:58;;;;;;;2.85;0.77;;;16.90;99.90;;;;;;5034535;28;20033;-79
2023/09/19 04:26:25;;;;;;;4.53;0.55;;;16.90;99.90;;;;;;5032219;28;20042;-79
2023/09/19 04:28:51;;;;;;;1.02;0.77;;;16.90;99.90;;;;;;5035025;28;20021;-79
2023/09/19 04:31:18;;;;;;;0.55;0.55;;;16.80;99.90;;;;;;5037412;28;20072;-79
2023/09/19 04:33:44;;;;;;;0.85;0.40;;;16.80;99.90;;;;;;5034436;28;20033;-79
2023/09/19 04:36:09;;;;;;;3.60;0.22;;;16.80;99.90;;;;;;5033359;28;20060;-79
2023/09/19 04:38:35;;;;;;;0.50;0.50;;;16.80;99.90;;;;;;5034503;28;20030;-79
2023/09/19 04:41:01;;;;;;;0.75;0.73;;;16.80;99.90;;;;;;5032786;28;20025;-78
2023/09/19 04:43:26;;;;;;;0.60;0.28;;;16.80;99.90;;;;;;5033663;28;20512;-79
2023/09/19 04:45:55;;;;;;;0.90;0.40;;;16.70;99.90;;;;;;5030559;28;20033;-80
2023/09/19 04:48:24;;;;;;;2.05;0.70;;;16.70;99.90;;;;;;5030108;28;20106;-78
2023/09/19 04:50:50;;;;;;;0.43;0.43;;;16.60;99.90;;;;;;5034628;28;20040;-79
2023/09/19 04:53:17;;;;;;;0.90;0.90;;;16.60;99.90;;;;;;5038267;28;20037;-80
2023/09/19 04:55:43;;;;;;;1.58;0.65;;;16.60;99.90;;;;;;5040810;28;20116;-79
2023/09/19 04:58:08;;;;;;;1.25;0.40;;;16.60;99.90;;;;;;5043522;28;20026;-80
2023/09/19 05:00:35;;;;;;;3.15;0.70;;;16.70;99.90;;;;;;5039409;28;20529;-79
2023/09/19 05:03:01;;;;;;;1.02;0.43;;;16.60;99.90;;;;;;5035964;28;20026;-79
2023/09/19 05:05:26;;;;;;;0.35;0.35;;;16.60;99.90;;;;;;5032750;28;20028;-80
2023/09/19 05:07:54;;;;;;;1.75;0.73;;;16.70;99.90;;;;;;5034709;28;20034;-79
2023/09/19 05:10:20;;;;;;;1.25;0.70;;;16.70;99.90;;;;;;5033183;28;20404;-79
2023/09/19 05:12:47;;;;;;;2.08;1.02;;;16.70;99.90;;;;;;5030762;28;20060;-78
2023/09/19 05:15:14;;;;;;;0.63;0.63;;;16.70;99.90;;;;;;5029786;28;20026;-80
2023/09/19 05:17:40;;;;;;;2.08;0.65;;;16.70;99.90;;;;;;5028610;28;20056;-79
2023/09/19 05:20:24;;;;;;;2.92;0.93;;;16.80;99.90;;;;;;5028536;28;20037;-80
2023/09/19 05:22:51;;;;;;;0.32;0.32;;;16.80;99.90;;;;;;5035037;28;20028;-80
2023/09/19 05:25:18;;;;;;;3.08;0.68;;;16.80;99.90;;;;;;5027678;28;20084;-80
2023/09/19 05:27:44;;;;;;;0.45;0.45;;;16.80;99.90;;;;;;5027792;28;20449;-81
2023/09/19 05:30:10;;;;;;;0.43;0.40;;;16.70;99.90;;;;;;5027618;28;20033;-79
2023/09/19 05:32:36;;;;;;;2.60;0.40;;;16.80;99.90;;;;;;5028000;28;20022;-79
2023/09/19 05:35:03;;;;;;;0.70;0.40;;;16.80;99.90;;;;;;5032220;28;20026;-80
2023/09/19 05:37:29;;;;;;;1.38;0.40;;;16.80;99.90;;;;;;5031299;28;20037;-79
2023/09/19 05:39:55;;;;;;;1.95;0.95;;;16.80;99.90;;;;;;5030722;28;20033;-79
2023/09/19 05:42:21;;;;;;;0.73;0.70;;;16.80;99.90;;;;;;5030917;28;20021;-79
2023/09/19 05:44:46;;;;;;;0.90;0.40;;;16.80;99.90;;;;;;5031193;28;20029;-80
2023/09/19 05:47:12;;;;;;;4.07;0.50;;;16.90;99.90;;;;;;5033738;28;20440;-80
2023/09/19 05:49:38;;;;;;;0.40;0.40;;;16.90;99.90;;;;;;5035500;28;20040;-80
2023/09/19 05:52:07;;;;;;;0.93;0.70;;;16.90;99.90;;;;;;5037443;28;20476;-79
2023/09/19 05:54:34;;;;;;;1.88;0.50;;;16.90;99.90;;;;;;5039163;28;20055;-80
2023/09/19 05:57:01;;;;;;;0.65;0.55;;;16.90;99.90;;;;;;5040327;28;20121;-80
2023/09/19 05:59:27;;;;;;;3.95;0.73;;;16.90;99.90;;;;;;5035293;28;20028;-80
2023/09/19 06:01:53;;;;;;;1.42;0.80;;;16.90;99.90;;;;;;5033583;28;20021;-80
2023/09/19 06:04:21;;;;;;;0.35;0.35;;;16.90;99.90;;;;;;5033093;28;20127;-80
2023/09/19 06:06:48;;;;;;;1.70;0.50;;;16.90;99.90;;;;;;5037732;28;20038;-80
2023/09/19 06:09:14;;;;;;;0.32;0.30;;;16.90;99.90;;;;;;5029904;28;20382;-81
2023/09/19 06:11:42;;;;;;;0.43;0.43;;;16.90;99.90;;;;;;5045558;28;20101;-81
2023/09/19 06:14:07;;;;;;;1.13;0.80;;;16.80;99.90;;;;;;5045175;28;20036;-80
2023/09/19 06:16:33;;;;;;;0.65;0.65;;;16.70;99.90;;;;;;5043620;28;20042;-80
2023/09/19 06:19:02;;;;;;;1.17;0.40;;;16.70;99.90;;;;;;5040239;28;20032;-80
2023/09/19 06:21:28;;;;;;;0.50;0.50;;;16.60;99.90;;;;;;5029384;28;20033;-80
2023/09/19 06:23:55;;;;;;;0.57;0.57;;;16.60;99.90;;;;;;5047792;28;20025;-79
2023/09/19 06:26:21;;;;;;;3.63;0.95;;;16.60;99.90;;;;;;5049779;28;20033;-80
2023/09/19 06:28:47;;;;;;;2.85;0.85;;;16.70;99.90;;;;;;5048912;28;20071;-80
2023/09/19 06:31:12;;;;;;;2.75;0.88;;;16.60;99.90;;;;;;5045905;28;20478;-80
2023/09/19 06:33:39;;;;;;;0.95;0.70;;;16.70;99.90;;;;;;5041388;28;20028;-80
2023/09/19 06:36:05;;;;;;;1.60;0.40;;;16.80;99.90;;;;;;5039173;28;20445;-80
2023/09/19 06:38:32;;;;;;;1.25;0.70;;;16.90;99.90;;;;;;5042055;28;20467;-79
2023/09/19 06:40:58;;;;;;;0.77;0.70;;;17.00;99.90;;;;;;5036900;28;20025;-79
2023/09/19 06:43:24;;;;;;;3.63;0.65;;;17.10;99.90;;;;;;5036579;28;20200;-79
2023/09/19 06:45:54;;;;;;;0.73;0.60;;;17.10;99.90;;;;;;5036173;28;20034;-79
2023/09/19 06:48:21;;;;;;;0.80;0.63;;;17.10;99.90;;;;;;5035421;28;20053;-79
2023/09/19 06:50:48;;;;;;;3.05;0.77;;;17.20;99.90;;;;;;5038724;28;20075;-79
2023/09/19 06:53:14;;;;;;;1.20;0.93;;;17.20;99.90;;;;;;5034666;28;20025;-79
2023/09/19 06:55:40;;;;;;;0.85;0.63;;;17.20;99.90;;;;;;5034787;28;20026;-79
2023/09/19 06:58:06;;;;;;;0.82;0.80;;;17.00;99.90;;;;;;5034347;28;20026;-79
2023/09/19 07:00:35;;;;;;;0.70;0.47;;;16.90;99.90;;;;;;5035820;28;20017;-79
2023/09/19 07:03:05;;;;;;;0.73;0.73;;;16.80;99.90;;;;;;5036047;28;20029;-79
2023/09/19 07:05:31;;;;;;;0.32;0.32;;;16.70;99.90;;;;;;5043722;28;20025;-79
2023/09/19 07:07:58;;;;;;;0.82;0.60;;;16.70;99.90;;;;;;5040001;28;20037;-79
2023/09/19 07:10:27;;;;;;;1.00;0.88;;;16.70;99.90;;;;;;5037284;28;20017;-79
2023/09/19 07:13:10;;;;;;;2.45;0.57;;;16.80;99.90;;;;;;5036777;28;20025;-78
2023/09/19 07:15:46;;;;;;;1.05;0.50;;;16.80;99.90;;;;;;5034492;28;20029;-79
2023/09/19 07:18:16;;;;;;;0.68;0.43;;;16.90;99.90;;;;;;5032887;28;20148;-79
2023/09/19 07:20:48;;;;;;;1.17;0.40;;;17.00;99.90;;;;;;5034048;28;20013;-78
2023/09/19 07:23:18;;;;;;;0.75;0.75;;;17.10;99.90;;;;;;5032387;28;20033;-79
2023/09/19 07:25:44;;;;;;;1.65;0.77;;;17.10;99.90;;;;;;5032583;28;20033;-79
2023/09/19 07:28:10;;;;;;;0.82;0.63;;;17.20;99.90;;;;;;5034496;28;20025;-78
2023/09/19 07:30:41;;;;;;;0.93;0.63;;;17.30;99.90;;;;;;5032385;28;20367;-78
2023/09/19 07:33:07;;;;;;;1.00;0.60;;;17.30;99.90;;;;;;5032519;28;20068;-79
2023/09/19 07:35:33;;;;;;;4.05;0.60;;;17.40;99.90;;;;;;5032821;28;20026;-79
2023/09/19 07:38:01;;;;;;;0.52;0.40;;;17.50;99.90;;;;;;5033289;28;20025;-80
2023/09/19 07:40:28;;;;;;;2.75;0.93;;;17.40;99.90;;;;;;5035541;28;20120;-79
2023/09/19 07:42:55;;;;;;;3.08;1.25;;;17.40;99.90;;;;;;5035550;28;20537;-79
2023/09/19 07:45:20;;;;;;;1.83;0.50;;;17.40;99.90;;;;;;5039167;28;20036;-78
2023/09/19 07:47:47;;;;;;;2.00;0.82;;;17.30;99.90;;;;;;5039706;28;20033;-79
2023/09/19 07:50:19;;;;;;;5.05;0.60;;;17.30;99.90;;;;;;5034782;28;20092;-78
2023/09/19 07:52:53;;;;;;;2.30;0.98;;;17.40;99.90;;;;;;5031504;28;20025;-79
2023/09/19 07:55:20;;;;;;;1.75;1.05;;;17.50;99.90;;;;;;5028975;28;20022;-79
2023/09/19 07:57:49;;;;;;;6.63;1.13;;;17.60;99.90;;;;;;5032634;28;20040;-79
2023/09/19 08:00:15;;;;;;;1.55;1.02;;;17.60;99.90;;;;;;5028576;28;20529;-80
2023/09/19 08:02:42;;;;;;;1.30;0.60;;;17.70;99.90;;;;;;5034195;28;20028;-80
2023/09/19 08:05:15;;;;;;;2.15;1.08;;;17.80;99.90;;;;;;5040487;28;20035;-79
2023/09/19 08:07:42;;;;;;;5.40;0.75;;;17.80;99.90;;;;;;5039433;28;20033;-80
2023/09/19 08:10:13;;;;;;;2.55;1.30;;;17.90;99.90;;;;;;5033512;28;20441;-80
2023/09/19 08:12:46;;;;;;;1.40;0.73;;;18.00;99.90;;;;;;5035322;28;20485;-80
2023/09/19 08:15:13;;;;;;;1.48;0.55;;;18.30;99.90;;;;;;5039473;28;20072;-79
2023/09/19 08:17:39;;;;;;;1.05;0.82;;;18.40;99.90;;;;;;5035084;28;20072;-80
2023/09/19 08:20:05;;;;;;;1.13;0.98;;;18.60;99.90;;;;;;5029292;28;20521;-80
2023/09/19 08:22:32;;;;;;;2.85;0.70;;;18.80;99.90;;;;;;5031629;28;20045;-80
2023/09/19 08:24:58;;;;;;;9.07;0.50;;;19.00;99.90;;;;;;5029958;28;20033;-80
2023/09/19 08:27:26;;;;;;;1.77;0.43;;;19.20;99.90;;;;;;5031466;28;20041;-79
2023/09/19 08:29:53;;;;;;;0.90;0.35;;;19.10;99.90;;;;;;5032893;28;20087;-79
2023/09/19 08:32:23;;;;;;;4.50;1.27;;;19.00;99.90;;;;;;5031868;28;20057;-79
2023/09/19 08:34:49;;;;;;;0.70;0.70;;;19.00;99.90;;;;;;5030764;28;20037;-80
2023/09/19 08:37:17;;;;;;;0.65;0.65;;;19.40;99.90;;;;;;5027879;28;20095;-80
2023/09/19 08:39:43;;;;;;;1.02;0.73;;;19.80;99.90;;;;;;5028526;28;20486;-79
2023/09/19 08:42:11;;;;;;;6.80;1.25;;;20.00;99.90;;;;;;5027922;28;20026;-80
2023/09/19 08:44:40;;;;;;;1.38;1.00;;;20.40;99.90;;;;;;5030567;28;20021;-79
2023/09/19 08:47:19;;;;;;;0.40;0.40;;;20.10;99.90;;;;;;5038027;28;20055;-79
2023/09/19 08:50:00;;;;;;;;;;;19.50;99.90;;;;;;5035204;28;20022;-79
2023/09/19 08:52:33;;;;;;;0.77;0.55;;;19.10;99.90;;;;;;5031310;28;20368;-79
2023/09/19 08:55:01;;;;;;;0.77;0.77;;;19.10;99.90;;;;;;5028827;28;20026;-79
2023/09/19 08:57:29;;;;;;;0.60;0.60;;;19.10;99.90;;;;;;5035188;28;20440;-79
2023/09/19 08:59:56;;;;;;;2.42;0.73;;;19.10;99.90;;;;;;5028963;28;20022;-79
2023/09/19 09:02:23;;;;;;;1.48;0.70;;;19.10;99.90;;;;;;5028032;28;20494;-79
2023/09/19 09:04:50;;;;;;;0.88;0.77;;;19.10;99.90;;;;;;5029381;28;20057;-78
2023/09/19 09:07:18;;;;;;;1.20;0.68;;;19.10;99.90;;;;;;5029589;28;20501;-80
2023/09/19 09:09:45;;;;;;;0.63;0.57;;;19.20;99.90;;;;;;5028150;28;20059;-79
2023/09/19 09:12:14;;;;;;;0.82;0.77;;;19.30;99.90;;;;;;5032028;28;20025;-76
2023/09/19 09:14:44;;;;;;;1.95;0.73;;;19.50;99.90;;;;;;5032667;28;20017;-78
2023/09/19 09:17:10;;;;;;;;;;;19.60;99.90;;;;;;5033292;28;20056;-78
2023/09/19 09:19:35;;;;;;;1.30;0.65;;;19.70;99.90;;;;;;5032626;28;19909;-78
2023/09/19 09:22:11;;;;;;;0.50;0.50;;;20.00;99.90;;;;;;5033009;28;20036;-78
2023/09/19 09:24:50;;;;;;;0.57;0.57;;;20.10;99.90;;;;;;5033894;28;20434;-78
2023/09/19 09:27:17;;;;;;;1.13;0.88;;;20.10;99.90;;;;;;5032583;28;20367;-78
2023/09/19 09:29:51;;;;;;;6.28;1.05;;;20.10;99.90;;;;;;5032880;28;20080;-78
2023/09/19 09:32:19;;;;;;;1.50;0.68;;;20.10;99.90;;;;;;5032910;28;20504;-79
2023/09/19 09:34:47;;;;;;;1.60;0.70;;;20.10;99.90;;;;;;5031902;28;20039;-78
2023/09/19 09:37:24;;;;;;;0.93;0.93;;;20.10;99.90;;;;;;5031749;28;20028;-78
2023/09/19 09:40:12;;;;;;;1.05;0.65;;;20.00;99.90;;;;;;5032414;28;20152;-78
2023/09/19 09:42:41;;;;;;;0.52;0.52;;;20.00;99.90;;;;;;5036990;28;20049;-78
2023/09/19 09:45:28;;;;;;;0.52;0.52;;;20.00;99.90;;;;;;5033368;28;20036;-78
2023/09/19 09:47:57;;;;;;;0.93;0.63;;;20.30;99.90;;;;;;5032155;28;20022;-79
2023/09/19 09:53:08;;;;;;;0.70;0.60;;;20.60;99.90;;;;;;5032112;28;20033;-78
2023/09/19 09:56:02;;;;;;;0.65;0.50;;;20.90;99.90;;;;;;5031962;28;20025;-78
2023/09/19 09:58:32;;;;;;;1.35;0.73;;;20.90;99.90;;;;;;5031168;28;20036;-78
2023/09/19 10:00:59;;;;;;;0.55;0.55;;;20.60;99.90;;;;;;5033305;28;20092;-79
2023/09/19 10:03:40;;;;;;;0.50;0.47;;;20.40;99.90;;;;;;5031350;28;20047;-79
2023/09/19 10:06:25;;;;;;;0.73;0.60;;;20.30;99.90;;;;;;5031207;28;20157;-78
2023/09/19 10:09:20;;;;;;;1.60;1.00;;;20.40;99.90;;;;;;5030911;28;20083;-78
2023/09/19 10:12:08;;;;;;;1.77;0.63;;;20.10;99.90;;;;;;5028483;28;20490;-78
2023/09/19 10:14:38;;;;;;;4.32;0.60;;;19.90;99.90;;;;;;5031841;28;20029;-78
2023/09/19 10:17:05;;;;;;;0.63;0.30;;;19.90;99.90;;;;;;5030033;28;20491;-78
2023/09/19 10:19:53;;;;;;;4.00;0.88;;;19.90;99.90;;;;;;5030052;28;20025;-78
2023/09/19 10:22:22;;;;;;;3.67;0.70;;;20.10;99.90;;;;;;5029247;28;20033;-78
2023/09/19 10:24:53;;;;;;;2.95;0.75;;;20.30;99.90;;;;;;5030814;28;20079;-78
2023/09/19 10:27:20;;;;;;;3.45;0.70;;;20.40;99.90;;;;;;5032558;28;20390;-79
2023/09/19 10:29:50;;;;;;;2.40;0.77;;;20.60;99.90;;;;;;5031546;28;20506;-79
2023/09/19 10:32:19;;;;;;;0.85;0.70;;;20.80;99.90;;;;;;5030924;28;20486;-78
2023/09/19 10:34:47;;;;;;;0.63;0.60;;;20.90;99.90;;;;;;5034004;28;20021;-78
2023/09/19 10:37:15;;;;;;;1.20;0.63;;;21.00;99.90;;;;;;5035294;28;20021;-77
2023/09/19 10:39:42;;;;;;;1.02;0.65;;;20.80;99.90;;;;;;5029834;28;20127;-79
2023/09/19 10:42:15;;;;;;;0.45;0.40;;;20.70;99.90;;;;;;5029628;28;20036;-78
2023/09/19 10:44:44;;;;;;;0.82;0.60;;;20.60;99.90;;;;;;5030515;28;20494;-78
2023/09/19 10:47:11;;;;;;;1.27;0.52;;;20.60;99.90;;;;;;5031115;28;20045;-78
2023/09/19 10:49:46;;;;;;;0.43;0.43;;;20.80;99.90;;;;;;5030967;28;20152;-78
2023/09/19 10:52:18;;;;;;;1.50;0.82;;;20.70;99.90;;;;;;5029739;28;20138;-79
2023/09/19 10:54:51;;;;;;;1.00;0.60;;;20.70;99.90;;;;;;5029294;28;20382;-78
2023/09/19 10:57:24;;;;;;;4.40;0.50;;;21.00;99.90;;;;;;5029144;28;20048;-79
2023/09/19 11:00:21;;;;;;;0.70;0.70;;;21.10;99.90;;;;;;5030558;28;20557;-78
2023/09/19 11:03:33;;;;;;;2.20;0.50;;;21.00;99.90;;;;;;5030481;28;20021;-78
2023/09/19 11:06:09;;;;;;;0.43;0.43;;;21.00;99.90;;;;;;5030328;28;20187;-79
2023/09/19 11:09:21;;;;;;;0.70;0.50;;;21.10;99.90;;;;;;5028810;28;20018;-78
2023/09/19 11:11:52;;;;;;;5.25;1.00;;;21.20;99.90;;;;;;4968763;28;20065;-74
2023/09/19 11:14:24;;;;;;;1.67;0.80;;;21.20;99.90;;;;;;5024559;28;20434;-73
2023/09/19 11:17:11;;;;;;;0.30;0.30;;;21.10;99.90;;;;;;5030116;28;20128;-74
2023/09/19 11:28:13;;;;;;;2.33;0.45;;;21.40;99.90;;;;;;5030836;28;20519;-79
2023/09/19 11:30:53;;;;;;;0.30;0.30;;;21.60;99.90;;;;;;5029058;28;20394;-85
2023/09/19 11:33:41;;;;;;;0.80;0.53;;;22.00;99.90;;;;;;5030370;28;20021;-82
2023/09/19 11:36:24;;;;;;;0.45;0.40;;;22.10;99.90;;;;;;5030306;28;20025;-81
2023/09/19 11:38:50;;;;;;;1.45;0.80;;;22.30;99.90;;;;;;5029201;28;20080;-81
2023/09/19 11:41:21;;;;;;;2.28;0.50;;;22.40;99.90;;;;;;5022656;28;20030;-82
2023/09/19 11:43:51;;;;;;;0.30;0.30;;;22.40;99.90;;;;;;5026520;28;20087;-80
2023/09/19 11:46:21;;;;;;;1.77;1.08;;;22.40;99.90;;;;;;5028220;28;20037;-80
2023/09/19 11:48:48;;;;;;;0.40;0.40;;;22.40;99.90;;;;;;5028293;28;20030;-84
2023/09/19 11:51:27;;;;;;;4.53;0.90;;;22.60;99.90;;;;;;5028117;28;20029;-82
2023/09/19 11:53:57;;;;;;;;;;;23.00;99.90;;;;;;5028376;28;20025;-82
2023/09/19 11:56:25;;;;;;;1.13;0.80;;;23.70;97.90;;;;;;5028426;28;19920;-84
2023/09/19 11:58:56;;;;;;;2.33;0.50;;;24.40;97.50;;;;;;5027127;28;20025;-82
2023/09/19 12:01:28;;;;;;;1.15;0.95;;;24.90;95.40;;;;;;5028061;28;20018;-79
2023/09/19 12:03:57;;;;;;;0.50;0.50;;;24.00;95.50;;;;;;5027830;28;20032;-80
2023/09/19 12:06:25;;;;;;;0.85;0.82;;;24.70;97.10;;;;;;5028684;28;20049;-80
2023/09/19 12:08:53;;;;;;;0.95;0.40;;;25.70;93.50;;;;;;5026087;28;20029;-80
2023/09/19 12:11:21;;;;;;;0.33;0.30;;;25.70;92.20;;;;;;5026479;28;20442;-75
2023/09/19 12:13:48;;;;;;;1.33;0.35;;;25.70;91.30;;;;;;5026882;28;20037;-74
2023/09/19 12:16:21;;;;;;;0.38;0.38;;;26.60;89.30;;;;;;5027198;28;20040;-75
2023/09/19 12:18:50;;;;;;;0.57;0.45;;;26.90;87.80;;;;;;5027796;28;20043;-75
2023/09/19 12:21:31;;;;;;;1.20;0.53;;;26.10;88.10;;;;;;5027350;28;20087;-75
2023/09/19 12:24:11;;;;;;;0.73;0.65;;;25.60;86.80;;;;;;5026040;28;20363;-75
2023/09/19 12:26:43;;;;;;;2.40;0.30;;;26.30;85.60;;;;;;5027909;28;20039;-76
2023/09/19 12:29:44;;;;;;;0.85;0.85;;;27.50;86.30;;;;;;5026365;28;20021;-76
2023/09/19 12:32:10;;;;;;;2.00;0.80;;;26.40;85.00;;;;;;5019765;28;20445;-77
2023/09/19 12:34:42;;;;;;;2.17;0.70;;;24.70;88.80;;;;;;5027857;28;20405;-77
2023/09/19 12:37:12;;;;;;;0.90;0.40;;;23.90;89.40;;;;;;5027023;28;20022;-76
2023/09/19 12:39:38;;;;;;;0.50;0.50;;;23.40;90.60;;;;;;5026619;28;20049;-76
2023/09/19 12:42:08;;;;;;;3.13;0.98;;;24.60;90.00;;;;;;5026282;28;20029;-74
2023/09/19 12:44:35;;;;;;;0.50;0.50;;;24.80;88.90;;;;;;5028465;28;20464;-74
2023/09/19 12:47:14;;;;;;;0.40;0.40;;;24.00;90.60;;;;;;5030665;28;20123;-75
2023/09/19 12:50:25;;;;;;;1.55;0.50;;;23.60;90.90;;;;;;5030412;28;20029;-74
2023/09/19 12:52:51;;;;;;;2.00;0.70;;;23.00;91.00;;;;;;5030624;28;20037;-75
2023/09/19 12:55:27;;;;;;;3.30;0.52;;;22.50;92.10;;;;;;5031756;28;20037;-75
2023/09/19 12:58:09;;;;;;;1.85;0.50;;;22.70;92.20;;;;;;5027520;28;20049;-75
2023/09/19 13:00:44;;;;;;;2.38;0.40;;;24.20;90.90;;;;;;5030233;28;20363;-76
2023/09/19 13:03:25;;;;;;;0.50;0.40;;;26.60;84.80;;;;;;5023322;28;20036;-76
2023/09/19 13:05:55;;;;;;;3.30;0.60;;;27.40;80.00;;;;;;5030667;28;20033;-74
2023/09/19 13:08:31;;;;;;;0.45;0.40;;;26.50;78.50;;;;;;5031805;28;20091;-76
2023/09/19 13:11:12;;;;;;;0.40;0.40;;;25.50;81.10;;;;;;5012519;28;20049;-76
2023/09/19 13:13:41;;;;;;;1.85;0.40;;;25.80;81.30;;;;;;5016048;28;20232;-75
2023/09/19 13:16:14;;;;;;;0.40;0.40;;;26.00;82.90;;;;;;5015382;28;20084;-75
2023/09/19 13:18:46;;;;;;;0.70;0.57;;;26.50;81.30;;;;;;5012163;28;20018;-76